createdAt,value
2023-07-21T00:05:01.074Z,75641.06
2023-07-21T00:12:35.882Z,75636.97
2023-07-21T00:20:16.080Z,75651.25
2023-07-21T00:27:50.352Z,75661.47
2023-07-21T00:35:25.848Z,75673.72
2023-07-21T00:43:00.213Z,75688.00
2023-07-21T00:50:38.572Z,75692.06
2023-07-21T00:58:13.011Z,75714.53
2023-07-21T01:05:51.368Z,75712.47
2023-07-21T01:13:27.789Z,75714.53
2023-07-21T01:21:04.310Z,75728.81
2023-07-21T01:28:43.769Z,75747.19
2023-07-21T01:36:19.096Z,75747.19
2023-07-21T01:43:56.325Z,75759.41
2023-07-21T01:51:32.662Z,75775.75
2023-07-21T01:59:12.846Z,75783.91
2023-07-21T02:06:49.012Z,75775.75
2023-07-21T02:14:24.733Z,75808.41
2023-07-21T02:22:00.348Z,75812.47
2023-07-21T02:29:35.844Z,75816.56
2023-07-21T02:37:09.809Z,75816.56
2023-07-21T02:44:46.324Z,75818.59
2023-07-21T02:52:20.270Z,75810.44
2023-07-21T02:59:56.269Z,75826.75
2023-07-21T03:07:30.264Z,75832.88
2023-07-21T03:15:07.167Z,75826.75
2023-07-21T03:22:41.132Z,75830.84
2023-07-21T03:30:17.195Z,75834.94
2023-07-21T03:37:51.166Z,75845.13
2023-07-21T03:45:27.303Z,75849.22
2023-07-21T03:53:01.448Z,75841.06
2023-07-21T04:00:38.546Z,75853.28
2023-07-21T04:08:12.961Z,75847.16
2023-07-21T04:15:52.545Z,75863.50
2023-07-21T04:23:26.438Z,75875.75
2023-07-21T04:31:02.534Z,75847.16
2023-07-21T04:38:37.406Z,75843.09
2023-07-21T04:46:13.538Z,75806.34
2023-07-21T04:53:47.385Z,75792.06
2023-07-21T05:01:23.274Z,75788.00
2023-07-21T05:08:57.279Z,75759.41
2023-07-21T05:16:33.261Z,75732.88
2023-07-21T05:24:07.371Z,75720.66
2023-07-21T05:31:43.150Z,75694.13
2023-07-21T05:39:18.474Z,75679.84
2023-07-21T05:46:54.802Z,75657.38
2023-07-21T05:54:29.429Z,75645.13
2023-07-21T06:02:06.238Z,75630.84
2023-07-21T06:09:40.471Z,75618.59
2023-07-21T06:17:15.999Z,75598.19
2023-07-21T06:24:50.644Z,75571.69
2023-07-21T06:32:27.974Z,75549.22
2023-07-21T06:40:05.426Z,75545.16
2023-07-21T06:47:41.102Z,75528.81
2023-07-21T06:55:15.280Z,75516.56
2023-07-21T07:02:50.925Z,75506.38
2023-07-21T07:10:25.312Z,75502.28
2023-07-21T07:18:01.011Z,75490.06
2023-07-21T07:25:35.750Z,75467.59
2023-07-21T07:33:12.175Z,75434.97
2023-07-21T07:40:46.280Z,75400.25
2023-07-21T07:48:23.519Z,75371.69
2023-07-21T07:55:58.588Z,75351.28
2023-07-21T08:03:36.648Z,75322.72
2023-07-21T08:11:10.913Z,75279.88
2023-07-21T08:26:37.232Z,75228.88
2023-07-21T08:34:12.481Z,75216.63
2023-07-21T08:41:48.787Z,75202.34
2023-07-21T08:49:24.152Z,75190.09
2023-07-21T08:56:58.144Z,75177.84
2023-07-21T09:04:33.636Z,75169.69
2023-07-21T09:12:10.409Z,75147.25
2023-07-21T09:19:47.833Z,75135.00
2023-07-21T09:27:22.496Z,75118.69
2023-07-21T09:35:02.086Z,75102.38
2023-07-21T09:42:36.490Z,75094.19
2023-07-21T09:50:12.644Z,75073.78
2023-07-21T09:57:49.445Z,75069.72
2023-07-21T10:05:26.512Z,75071.75
2023-07-21T10:13:06.654Z,75037.06
2023-07-21T10:20:44.428Z,75010.53
2023-07-21T10:28:23.823Z,74994.22
2023-07-21T10:36:15.109Z,74967.69
2023-07-21T10:43:49.202Z,74955.47
2023-07-21T10:51:24.733Z,74926.91
2023-07-21T10:58:59.192Z,74912.63
2023-07-21T11:06:34.549Z,74886.09
2023-07-21T11:14:12.573Z,74879.97
2023-07-21T11:21:50.833Z,74867.72
2023-07-21T11:29:27.191Z,74873.84
2023-07-21T11:37:05.788Z,74859.56
2023-07-21T11:44:39.741Z,74849.38
2023-07-21T11:52:26.032Z,74851.41
2023-07-21T12:00:00.906Z,74851.41
2023-07-21T12:07:36.215Z,74851.41
2023-07-21T12:15:14.332Z,74845.28
2023-07-21T12:22:50.005Z,74837.13
2023-07-21T12:30:24.343Z,74831.00
2023-07-21T12:38:00.199Z,74824.88
2023-07-21T12:45:34.160Z,74816.72
2023-07-21T12:53:09.632Z,74812.66
2023-07-21T13:08:36.785Z,74790.19
2023-07-21T13:16:11.340Z,74792.25
2023-07-21T13:23:46.610Z,74775.91
2023-07-21T13:31:20.819Z,74775.91
2023-07-21T13:38:56.134Z,74749.41
2023-07-21T13:46:30.565Z,74757.56
2023-07-21T13:54:06.960Z,74733.06
2023-07-21T14:01:42.898Z,74696.34
2023-07-21T14:09:18.995Z,74659.63
2023-07-21T14:16:54.799Z,74637.19
2023-07-21T14:24:30.646Z,74622.91
2023-07-21T14:32:04.803Z,74582.13
2023-07-21T14:39:40.932Z,74539.28
2023-07-21T14:47:15.006Z,74527.03
2023-07-21T14:54:50.387Z,74525.00
2023-07-21T15:02:24.398Z,74543.34
2023-07-21T15:10:00.052Z,74541.31
2023-07-21T15:17:34.236Z,74527.03
2023-07-21T15:25:10.896Z,74443.38
2023-07-21T15:32:44.965Z,74484.19
2023-07-21T15:40:20.947Z,74482.16
2023-07-21T15:47:54.955Z,74400.56
2023-07-21T15:55:32.365Z,74380.16
2023-07-21T16:03:07.553Z,74398.50
2023-07-21T16:10:47.829Z,74408.72
2023-07-21T16:18:23.549Z,74420.94
2023-07-21T16:26:00.028Z,74443.38
2023-07-21T16:33:35.278Z,74453.59
2023-07-21T16:41:11.389Z,74482.16
2023-07-21T16:48:45.881Z,74492.34
2023-07-21T16:56:21.258Z,74490.31
2023-07-21T17:03:55.206Z,74498.47
2023-07-21T17:11:30.695Z,74561.72
2023-07-21T17:19:05.489Z,74790.19
2023-07-21T17:26:40.832Z,75037.06
2023-07-21T17:34:15.020Z,75065.63
2023-07-21T17:41:50.447Z,75112.56
2023-07-21T17:49:24.345Z,75102.38
2023-07-21T17:56:59.787Z,75116.66
2023-07-21T18:04:33.846Z,75126.84
2023-07-21T18:12:10.205Z,75116.66
2023-07-21T18:19:44.425Z,75141.13
2023-07-21T18:27:19.866Z,75157.44
2023-07-21T18:34:54.199Z,75157.44
2023-07-21T18:42:29.666Z,75143.16
2023-07-21T18:50:03.870Z,75171.72
2023-07-21T18:57:39.677Z,75173.78
2023-07-21T19:05:14.180Z,75173.78
2023-07-21T19:12:49.561Z,75173.78
2023-07-21T19:20:23.805Z,75161.53
2023-07-21T19:27:59.797Z,75167.66
2023-07-21T19:35:37.596Z,75181.94
2023-07-21T19:43:12.924Z,75198.25
2023-07-21T19:50:46.787Z,75204.38
2023-07-21T19:58:22.084Z,75216.63
2023-07-21T20:05:56.077Z,75222.75
2023-07-21T20:13:31.402Z,75235.00
2023-07-21T20:21:06.720Z,75251.31
2023-07-21T20:28:42.372Z,75261.50
2023-07-21T20:36:16.355Z,75265.59
2023-07-21T20:43:52.102Z,75294.16
2023-07-21T20:51:27.832Z,75312.53
2023-07-21T20:59:04.559Z,75320.69
2023-07-21T21:06:38.543Z,75337.00
2023-07-21T21:14:14.511Z,75343.13
2023-07-21T21:21:48.455Z,75359.47
2023-07-21T21:29:23.822Z,75373.75
2023-07-21T21:36:57.735Z,75390.06
2023-07-21T21:44:33.921Z,75402.31
2023-07-21T21:52:08.488Z,75400.25
2023-07-21T21:59:47.781Z,75406.38
2023-07-21T22:07:23.717Z,75424.75
2023-07-21T22:15:03.233Z,75437.00
2023-07-21T22:22:39.049Z,75457.41
2023-07-21T22:30:14.956Z,75469.66
2023-07-21T22:37:48.856Z,75477.81
2023-07-21T22:45:24.264Z,75496.16
2023-07-21T22:52:59.897Z,75510.47
2023-07-21T23:00:35.349Z,75518.63
2023-07-21T23:08:09.388Z,75532.91
2023-07-21T23:15:45.067Z,75539.03
2023-07-21T23:23:19.087Z,75549.22
2023-07-21T23:30:59.859Z,75563.50
2023-07-21T23:38:34.017Z,75575.75
2023-07-21T23:46:09.547Z,75577.78
2023-07-21T23:53:43.469Z,75579.84
